Time;durP1;ratioP1;P1;durP2;ratioP2;P2;SDS_P1;SDS_P2;PMS_P1;PMS_P2;Temp;Humidity;BMP_temperature;BMP_pressure;BME280_temperature;BME280_humidity;BME280_pressure;Samples;Min_cycle;Max_cycle;Signal;HPM_P1;HPM_P2
2023/04/07 00:01:46;;;;;;;58.95;35.10;;;6.50;99.90;;;;;;5074045;28;20044;-19
2023/04/07 00:04:12;;;;;;;56.58;34.53;;;6.50;99.90;;;;;;5075022;28;20045;-19
2023/04/07 00:06:39;;;;;;;57.80;36.60;;;6.50;99.90;;;;;;5074918;28;20041;-19
2023/04/07 00:09:05;;;;;;;61.67;36.88;;;6.50;99.90;;;;;;5073897;28;20398;-19
2023/04/07 00:11:31;;;;;;;60.92;37.63;;;6.50;99.90;;;;;;5073686;28;20086;-19
2023/04/07 00:13:57;;;;;;;63.80;38.78;;;6.50;99.90;;;;;;5074804;28;20044;-19
2023/04/07 00:16:23;;;;;;;63.95;37.72;;;6.50;99.90;;;;;;5074679;28;20041;-19
2023/04/07 00:18:48;;;;;;;67.50;38.35;;;6.50;99.90;;;;;;5074462;28;20056;-22
2023/04/07 00:21:14;;;;;;;65.65;37.20;;;6.50;99.90;;;;;;5074070;28;20568;-19
2023/04/07 00:23:41;;;;;;;62.38;36.20;;;6.50;99.90;;;;;;5074449;28;20098;-18
2023/04/07 00:26:07;;;;;;;65.88;38.38;;;6.60;99.90;;;;;;5074614;28;20127;-19
2023/04/07 00:28:33;;;;;;;73.97;39.80;;;6.60;99.90;;;;;;5075326;28;20103;-18
2023/04/07 00:30:59;;;;;;;76.53;42.22;;;6.60;99.90;;;;;;5074455;28;20359;-19
2023/04/07 00:33:24;;;;;;;69.50;39.72;;;6.50;99.90;;;;;;5074362;28;20136;-18
2023/04/07 00:35:50;;;;;;;75.75;41.15;;;6.60;99.90;;;;;;5073082;28;20135;-18
2023/04/07 00:38:16;;;;;;;68.38;40.05;;;6.60;99.90;;;;;;5074180;28;20056;-18
2023/04/07 00:40:42;;;;;;;75.25;41.08;;;6.50;99.90;;;;;;5074326;28;20040;-18
2023/04/07 00:43:07;;;;;;;79.30;42.60;;;6.60;99.90;;;;;;5074802;28;20482;-18
2023/04/07 00:45:33;;;;;;;77.47;42.35;;;6.60;99.90;;;;;;5074197;28;20045;-18
2023/04/07 00:47:59;;;;;;;75.38;43.22;;;6.60;99.90;;;;;;5074147;28;20091;-18
2023/04/07 00:50:25;;;;;;;81.57;42.97;;;6.60;99.90;;;;;;5074130;28;20048;-18
2023/04/07 00:52:52;;;;;;;80.45;43.10;;;6.60;99.90;;;;;;5074300;28;20056;-18
2023/04/07 00:55:18;;;;;;;84.88;42.30;;;6.60;99.90;;;;;;5073385;28;20044;-18
2023/04/07 00:57:45;;;;;;;79.90;42.33;;;6.60;99.90;;;;;;5073978;28;20056;-18
2023/04/07 01:00:11;;;;;;;78.40;43.55;;;6.60;99.90;;;;;;5073960;28;20136;-18
2023/04/07 01:02:42;;;;;;;79.38;43.55;;;6.50;99.90;;;;;;5073628;28;20517;-18
2023/04/07 01:05:51;;;;;;;88.25;44.63;;;6.60;99.90;;;;;;5074142;28;20394;-18
2023/04/07 01:08:29;;;;;;;96.18;43.35;;;6.50;99.90;;;;;;5070271;28;20063;-18
2023/04/07 01:11:16;;;;;;;89.28;44.35;;;6.60;99.90;;;;;;5073890;28;20045;-19
2023/04/07 01:13:50;;;;;;;94.18;44.40;;;6.60;99.90;;;;;;5073998;28;20053;-19
2023/04/07 01:16:23;;;;;;;103.30;45.83;;;6.60;99.90;;;;;;5072589;28;20097;-19
2023/04/07 01:18:53;;;;;;;100.75;46.28;;;6.60;99.90;;;;;;5073956;28;20052;-19
2023/04/07 01:21:26;;;;;;;89.25;43.00;;;6.60;99.90;;;;;;5073501;28;20483;-19
2023/04/07 01:24:07;;;;;;;98.45;46.05;;;6.50;99.90;;;;;;5073400;28;20434;-19
2023/04/07 01:26:33;;;;;;;91.82;46.53;;;6.60;99.90;;;;;;5074020;28;20056;-19
2023/04/07 01:29:24;;;;;;;102.78;46.00;;;6.60;99.90;;;;;;5073647;28;20048;-19
2023/04/07 01:31:50;;;;;;;89.13;44.55;;;6.60;99.90;;;;;;5074420;28;20052;-19
2023/04/07 01:34:17;;;;;;;99.05;46.10;;;6.60;99.90;;;;;;5073600;28;20132;-19
2023/04/07 01:36:44;;;;;;;106.10;47.97;;;6.60;99.90;;;;;;5073554;28;20048;-19
2023/04/07 01:39:10;;;;;;;117.60;49.38;;;6.60;99.90;;;;;;5073537;28;20131;-19
2023/04/07 01:41:38;;;;;;;98.47;46.83;;;6.60;99.90;;;;;;5072877;28;20052;-19
2023/04/07 01:44:06;;;;;;;99.13;46.50;;;6.60;99.90;;;;;;5072526;28;20044;-19
2023/04/07 01:46:33;;;;;;;112.68;49.28;;;6.60;99.90;;;;;;5076129;28;20036;-19
2023/04/07 01:49:00;;;;;;;107.30;48.95;;;6.60;99.90;;;;;;5076640;28;20036;-19
2023/04/07 01:51:29;;;;;;;95.25;46.90;;;6.60;99.90;;;;;;5078130;28;20375;-19
2023/04/07 01:53:55;;;;;;;95.70;44.88;;;6.60;99.90;;;;;;5077476;28;20127;-19
2023/04/07 01:56:21;;;;;;;93.45;45.00;;;6.60;99.90;;;;;;5077999;28;20139;-19
2023/04/07 01:58:47;;;;;;;86.20;45.58;;;6.60;99.90;;;;;;5077434;28;20127;-19
2023/04/07 02:01:14;;;;;;;100.07;46.83;;;6.60;99.90;;;;;;5077929;28;20103;-19
2023/04/07 02:03:45;;;;;;;103.38;45.10;;;6.60;99.90;;;;;;5077860;28;20040;-19
2023/04/07 02:06:15;;;;;;;93.47;45.20;;;6.60;99.90;;;;;;5077344;28;20106;-19
2023/04/07 02:08:47;;;;;;;102.30;46.78;;;6.60;99.90;;;;;;5078050;28;20040;-19
2023/04/07 02:11:17;;;;;;;92.35;45.60;;;6.60;99.90;;;;;;5077219;28;20041;-19
2023/04/07 02:13:44;;;;;;;115.28;47.47;;;6.50;99.90;;;;;;5077204;28;20495;-19
2023/04/07 02:16:12;;;;;;;106.68;46.15;;;6.70;99.90;;;;;;5076978;28;20047;-19
2023/04/07 02:18:38;;;;;;;95.82;44.92;;;6.60;99.90;;;;;;5075607;28;20053;-19
2023/04/07 02:21:07;;;;;;;90.00;45.08;;;6.50;99.90;;;;;;5077038;28;20526;-19
2023/04/07 02:23:34;;;;;;;92.43;44.50;;;6.60;99.90;;;;;;5076913;28;20051;-19
2023/04/07 02:26:00;;;;;;;108.50;47.03;;;6.70;99.90;;;;;;5076817;28;20048;-19
2023/04/07 02:28:26;;;;;;;104.47;46.40;;;6.70;99.90;;;;;;5077387;28;20048;-19
2023/04/07 02:30:52;;;;;;;102.10;44.90;;;6.60;99.90;;;;;;5077658;28;20048;-19
2023/04/07 02:33:17;;;;;;;100.22;45.85;;;6.60;99.90;;;;;;5076756;28;20087;-19
2023/04/07 02:35:43;;;;;;;89.70;43.78;;;6.60;99.90;;;;;;5076444;28;20044;-19
2023/04/07 02:38:09;;;;;;;95.28;44.75;;;6.60;99.90;;;;;;5076648;28;20053;-19
2023/04/07 02:40:35;;;;;;;98.60;45.35;;;6.60;99.90;;;;;;5076588;28;20060;-19
2023/04/07 02:43:01;;;;;;;102.25;45.38;;;6.60;99.90;;;;;;5076576;28;20048;-19
2023/04/07 02:45:27;;;;;;;103.88;46.10;;;6.70;99.90;;;;;;5076795;28;20116;-19
2023/04/07 02:47:53;;;;;;;113.82;47.50;;;6.60;99.90;;;;;;5076506;28;20128;-19
2023/04/07 02:50:19;;;;;;;95.85;45.15;;;6.60;99.90;;;;;;5076435;28;20045;-19
2023/04/07 02:52:44;;;;;;;95.70;44.90;;;6.60;99.90;;;;;;5076921;28;20047;-18
2023/04/07 02:55:10;;;;;;;91.82;43.88;;;6.60;99.90;;;;;;5076276;28;20056;-19
2023/04/07 02:57:36;;;;;;;102.13;45.45;;;6.60;99.90;;;;;;5073842;28;20056;-18
2023/04/07 03:00:02;;;;;;;105.97;46.42;;;6.70;99.90;;;;;;5075991;28;20052;-18
2023/04/07 03:02:28;;;;;;;102.55;45.92;;;6.70;99.90;;;;;;5075510;28;20399;-18
2023/04/07 03:04:54;;;;;;;93.40;45.63;;;6.60;99.90;;;;;;5076186;28;20040;-18
2023/04/07 03:07:20;;;;;;;102.10;45.60;;;6.60;99.90;;;;;;5074981;28;20059;-18
2023/04/07 03:09:45;;;;;;;82.30;43.03;;;6.70;99.90;;;;;;5074944;28;20051;-19
2023/04/07 03:12:11;;;;;;;96.68;46.85;;;6.70;99.90;;;;;;5041778;28;20075;-19
2023/04/07 03:14:37;;;;;;;87.10;43.53;;;6.70;99.90;;;;;;5076821;28;20041;-19
2023/04/07 03:17:03;;;;;;;111.35;47.40;;;6.60;99.90;;;;;;5075577;28;20516;-19
2023/04/07 03:19:29;;;;;;;95.63;44.20;;;6.60;99.90;;;;;;5075952;28;20053;-19
2023/04/07 03:21:55;;;;;;;87.97;42.60;;;6.70;99.90;;;;;;5075896;28;20101;-19
2023/04/07 03:24:21;;;;;;;95.60;44.33;;;6.60;99.90;;;;;;5075838;28;20059;-18
2023/04/07 03:26:46;;;;;;;91.32;44.03;;;6.50;99.90;;;;;;5075203;28;20040;-19
2023/04/07 03:29:12;;;;;;;91.38;44.97;;;6.70;99.90;;;;;;5076019;28;20052;-19
2023/04/07 03:31:38;;;;;;;93.20;43.10;;;6.70;99.90;;;;;;5075669;28;20084;-19
2023/04/07 03:34:04;;;;;;;97.60;43.67;;;6.70;99.90;;;;;;5075640;28;20123;-19
2023/04/07 03:36:33;;;;;;;94.85;42.78;;;6.70;99.90;;;;;;5075526;28;20474;-19
2023/04/07 03:38:58;;;;;;;97.63;44.83;;;6.60;99.90;;;;;;5076147;28;20147;-19
2023/04/07 03:41:24;;;;;;;104.80;46.05;;;6.70;99.90;;;;;;5076033;28;20536;-19
2023/04/07 03:43:50;;;;;;;84.38;43.80;;;6.60;99.90;;;;;;5075452;28;20070;-19
2023/04/07 03:46:17;;;;;;;90.85;43.85;;;6.60;99.90;;;;;;5075397;28;20482;-19
2023/04/07 03:48:43;;;;;;;96.97;45.20;;;6.70;99.90;;;;;;5076146;28;20051;-19
2023/04/07 03:51:09;;;;;;;85.75;44.42;;;6.70;99.90;;;;;;5075589;28;20386;-19
2023/04/07 03:53:35;;;;;;;95.90;46.22;;;6.60;99.90;;;;;;5074897;28;20383;-19
2023/04/07 03:56:00;;;;;;;91.47;45.40;;;6.60;99.90;;;;;;5075169;28;20040;-19
2023/04/07 03:58:26;;;;;;;93.60;45.22;;;6.60;99.90;;;;;;5075137;28;20040;-19
2023/04/07 04:00:52;;;;;;;90.30;43.92;;;6.60;99.90;;;;;;5073929;28;20048;-19
2023/04/07 04:03:18;;;;;;;85.60;44.80;;;6.70;99.90;;;;;;5073767;28;20044;-19
2023/04/07 04:05:44;;;;;;;83.13;43.83;;;6.80;99.90;;;;;;5075270;28;20079;-20
2023/04/07 04:08:09;;;;;;;88.35;44.22;;;6.70;99.90;;;;;;5074731;28;20040;-19
2023/04/07 04:10:35;;;;;;;78.15;41.30;;;6.60;99.90;;;;;;5074915;28;20051;-19
2023/04/07 04:13:02;;;;;;;80.78;41.42;;;6.70;99.90;;;;;;5074532;28;20105;-19
2023/04/07 04:15:28;;;;;;;88.78;43.83;;;6.70;99.90;;;;;;5075024;28;20109;-19
2023/04/07 04:17:54;;;;;;;88.97;43.83;;;6.70;99.90;;;;;;5074756;28;20048;-19
2023/04/07 04:20:21;;;;;;;89.60;42.85;;;6.80;99.90;;;;;;5073367;28;20057;-19
2023/04/07 04:22:46;;;;;;;77.88;41.70;;;6.60;99.90;;;;;;5075239;28;20132;-19
2023/04/07 04:25:12;;;;;;;80.68;43.95;;;6.70;99.90;;;;;;5074613;28;20181;-19
2023/04/07 04:27:38;;;;;;;85.57;44.00;;;6.60;99.90;;;;;;5074594;28;20048;-19
2023/04/07 04:30:04;;;;;;;81.65;44.22;;;6.70;99.90;;;;;;5074530;28;20048;-19
2023/04/07 04:32:30;;;;;;;86.43;44.03;;;6.60;99.90;;;;;;5074499;28;20048;-19
2023/04/07 04:34:56;;;;;;;86.03;43.40;;;6.70;99.90;;;;;;5073160;28;20071;-19
2023/04/07 04:37:21;;;;;;;84.60;43.92;;;6.60;99.90;;;;;;5073700;28;20041;-19
2023/04/07 04:39:47;;;;;;;85.68;44.33;;;6.70;99.90;;;;;;5074930;28;20063;-19
2023/04/07 04:42:13;;;;;;;88.40;44.67;;;6.70;99.90;;;;;;5074328;28;20057;-19
2023/04/07 04:44:39;;;;;;;86.18;45.17;;;6.60;99.90;;;;;;5074100;28;20045;-19
2023/04/07 04:47:04;;;;;;;76.13;42.92;;;6.80;99.90;;;;;;5074226;28;20032;-19
2023/04/07 04:49:30;;;;;;;92.07;46.15;;;6.70;99.90;;;;;;5072995;28;20056;-19
2023/04/07 04:51:56;;;;;;;92.95;46.10;;;6.70;99.90;;;;;;5074135;28;20394;-19
2023/04/07 04:54:22;;;;;;;87.22;45.30;;;6.60;99.90;;;;;;5073785;28;20045;-19
2023/04/07 04:56:48;;;;;;;88.55;46.88;;;6.60;99.90;;;;;;5073985;28;20041;-19
2023/04/07 04:59:13;;;;;;;88.88;44.95;;;6.60;99.90;;;;;;5073720;28;20056;-19
2023/04/07 05:01:39;;;;;;;90.10;44.67;;;6.60;99.90;;;;;;5074808;28;20052;-19
2023/04/07 05:04:05;;;;;;;92.72;46.47;;;6.60;99.90;;;;;;5073901;28;20044;-19
2023/04/07 05:06:31;;;;;;;96.88;46.80;;;6.60;99.90;;;;;;5073927;28;20094;-19
2023/04/07 05:08:57;;;;;;;86.75;43.38;;;6.70;99.90;;;;;;5074449;28;20139;-19
2023/04/07 05:11:23;;;;;;;87.55;43.25;;;6.70;99.90;;;;;;5073846;28;20106;-20
2023/04/07 05:13:48;;;;;;;87.20;42.75;;;6.60;99.90;;;;;;5072664;28;20478;-20
2023/04/07 05:16:14;;;;;;;90.25;44.17;;;6.60;99.90;;;;;;5073711;28;20051;-20
2023/04/07 05:18:40;;;;;;;86.68;43.95;;;6.60;99.90;;;;;;5073722;28;20055;-19
2023/04/07 05:21:06;;;;;;;74.45;41.72;;;6.70;99.90;;;;;;5072798;28;20064;-20
2023/04/07 05:23:32;;;;;;;88.60;44.58;;;6.60;99.90;;;;;;5073684;28;20113;-20
2023/04/07 05:25:58;;;;;;;82.90;43.28;;;6.60;99.90;;;;;;5073662;28;20037;-20
2023/04/07 05:28:24;;;;;;;77.97;42.38;;;6.70;99.90;;;;;;5072495;28;20052;-20
2023/04/07 05:30:50;;;;;;;75.00;39.85;;;6.50;99.90;;;;;;5072516;28;20055;-20
2023/04/07 05:33:16;;;;;;;83.25;42.95;;;6.60;99.90;;;;;;5074169;28;20048;-19
2023/04/07 05:35:44;;;;;;;72.03;39.55;;;6.70;99.90;;;;;;5074061;28;20040;-18
2023/04/07 05:38:10;;;;;;;81.18;41.17;;;6.60;99.90;;;;;;5073629;28;20075;-18
2023/04/07 05:40:36;;;;;;;79.10;41.20;;;6.60;99.90;;;;;;5073772;28;20123;-19
2023/04/07 05:43:02;;;;;;;78.03;41.15;;;6.60;99.90;;;;;;5073435;28;20600;-19
2023/04/07 05:45:28;;;;;;;75.95;40.67;;;6.70;99.90;;;;;;5073286;28;20127;-19
2023/04/07 05:47:54;;;;;;;71.40;39.75;;;6.60;99.90;;;;;;5072268;28;20048;-19
2023/04/07 05:50:19;;;;;;;64.18;37.88;;;6.60;99.90;;;;;;5073266;28;20053;-19
2023/04/07 05:52:45;;;;;;;65.40;36.85;;;6.70;99.90;;;;;;5072209;28;20044;-19
2023/04/07 05:55:11;;;;;;;65.47;36.35;;;6.60;99.90;;;;;;5073340;28;20051;-19
2023/04/07 05:57:37;;;;;;;62.28;37.60;;;6.70;99.90;;;;;;5073290;28;20080;-19
2023/04/07 06:00:03;;;;;;;60.65;36.25;;;6.60;99.90;;;;;;5073384;28;20060;-19
2023/04/07 06:02:29;;;;;;;61.20;38.15;;;6.70;99.90;;;;;;5073260;28;20102;-19
2023/04/07 06:04:55;;;;;;;61.67;36.25;;;6.70;99.90;;;;;;5073258;28;20053;-19
2023/04/07 06:07:21;;;;;;;59.95;35.50;;;6.70;99.90;;;;;;5073270;28;20051;-19
2023/04/07 06:09:47;;;;;;;59.85;36.20;;;6.70;99.90;;;;;;5073266;28;20049;-19
2023/04/07 06:12:14;;;;;;;61.20;37.13;;;6.80;99.90;;;;;;5073215;28;20048;-19
2023/04/07 06:14:39;;;;;;;54.60;35.13;;;6.80;99.90;;;;;;5073183;28;20480;-19
2023/04/07 06:17:05;;;;;;;59.42;35.25;;;6.90;99.90;;;;;;5073695;28;20044;-19
2023/04/07 06:19:32;;;;;;;54.83;34.85;;;6.90;99.90;;;;;;5072863;28;20049;-20
2023/04/07 06:21:57;;;;;;;54.38;33.53;;;7.00;99.90;;;;;;5073411;28;20059;-19
2023/04/07 06:24:24;;;;;;;49.38;32.38;;;6.90;99.90;;;;;;5073067;28;20123;-19
2023/04/07 06:26:51;;;;;;;52.88;32.92;;;6.90;99.90;;;;;;5072162;28;20546;-19
2023/04/07 06:29:17;;;;;;;52.53;33.00;;;7.00;99.90;;;;;;5073109;28;20040;-19
2023/04/07 06:31:43;;;;;;;55.55;34.95;;;7.00;99.90;;;;;;5074133;28;20085;-19
2023/04/07 06:34:09;;;;;;;46.40;31.17;;;7.10;99.90;;;;;;5059436;28;20046;-19
2023/04/07 06:36:35;;;;;;;45.85;30.30;;;7.10;99.90;;;;;;5076632;28;20118;-19
2023/04/07 06:39:00;;;;;;;47.30;31.42;;;7.10;99.90;;;;;;5076939;28;20079;-19
2023/04/07 06:41:26;;;;;;;46.83;31.13;;;7.10;99.90;;;;;;5076608;28;20044;-19
2023/04/07 06:43:53;;;;;;;49.80;31.33;;;7.20;99.90;;;;;;5075485;28;20109;-20
2023/04/07 06:46:19;;;;;;;43.05;28.73;;;7.30;99.90;;;;;;5076527;28;20083;-19
2023/04/07 06:48:45;;;;;;;40.88;28.50;;;7.30;99.90;;;;;;5076757;28;20051;-19
2023/04/07 06:51:11;;;;;;;39.92;27.63;;;7.20;99.90;;;;;;5076971;28;20051;-20
2023/04/07 06:53:37;;;;;;;40.67;26.83;;;7.30;99.90;;;;;;5076441;28;20048;-19
2023/04/07 06:56:07;;;;;;;35.28;25.58;;;7.40;99.90;;;;;;5076292;28;20036;-20
2023/04/07 06:58:34;;;;;;;35.03;24.92;;;7.50;99.90;;;;;;5076880;28;20044;-20
2023/04/07 07:01:01;;;;;;;33.42;23.83;;;7.40;99.90;;;;;;5076256;28;20070;-20
2023/04/07 07:03:28;;;;;;;30.65;22.33;;;7.50;99.90;;;;;;5075242;28;20067;-19
2023/04/07 07:05:57;;;;;;;27.85;21.38;;;7.50;99.90;;;;;;5076273;28;20139;-19
2023/04/07 07:08:24;;;;;;;30.15;21.33;;;7.70;99.90;;;;;;5076947;28;20045;-19
2023/04/07 07:10:51;;;;;;;27.90;21.27;;;7.70;99.90;;;;;;5076113;28;20053;-19
2023/04/07 07:13:18;;;;;;;28.67;21.33;;;7.80;99.90;;;;;;5076872;28;20048;-19
2023/04/07 07:15:44;;;;;;;26.00;20.52;;;7.80;99.90;;;;;;5074934;28;20048;-19
2023/04/07 07:18:11;;;;;;;24.52;19.40;;;7.90;99.90;;;;;;5075961;28;20040;-19
2023/04/07 07:20:37;;;;;;;24.00;19.00;;;7.90;99.90;;;;;;5075423;28;20056;-19
2023/04/07 07:23:03;;;;;;;25.33;19.50;;;8.00;99.90;;;;;;5074920;28;20063;-19
2023/04/07 07:25:29;;;;;;;26.15;18.42;;;8.00;99.90;;;;;;5075806;28;20068;-19
2023/04/07 07:27:54;;;;;;;25.05;19.27;;;8.10;99.90;;;;;;5076327;28;20059;-19
2023/04/07 07:30:21;;;;;;;23.77;18.42;;;8.20;99.90;;;;;;5075776;28;20124;-19
2023/04/07 07:32:47;;;;;;;23.65;18.05;;;8.30;99.90;;;;;;5076250;28;20145;-19
2023/04/07 07:35:14;;;;;;;24.15;18.58;;;8.40;99.90;;;;;;5076234;28;20074;-19
2023/04/07 07:37:40;;;;;;;25.38;19.30;;;8.40;99.90;;;;;;5075603;28;20044;-19
2023/04/07 07:40:06;;;;;;;22.95;18.52;;;8.50;99.90;;;;;;5074265;28;20131;-19
2023/04/07 07:42:32;;;;;;;21.55;17.88;;;8.60;99.90;;;;;;5075374;28;20055;-19
2023/04/07 07:44:58;;;;;;;20.80;17.73;;;8.60;99.90;;;;;;5074885;28;20040;-19
2023/04/07 07:47:25;;;;;;;23.88;18.35;;;8.70;99.90;;;;;;5075494;28;20048;-19
2023/04/07 07:49:51;;;;;;;23.70;16.83;;;9.00;99.90;;;;;;5074224;28;20123;-19
2023/04/07 07:52:17;;;;;;;21.08;17.08;;;9.10;99.90;;;;;;5075286;28;20479;-19
2023/04/07 07:54:43;;;;;;;19.58;15.70;;;9.30;99.90;;;;;;5075291;28;20045;-19
2023/04/07 07:57:08;;;;;;;21.98;15.90;;;9.40;99.90;;;;;;5074520;28;20098;-19
2023/04/07 07:59:34;;;;;;;21.58;15.27;;;9.40;99.90;;;;;;5075186;28;20044;-19
2023/04/07 08:02:00;;;;;;;20.55;16.73;;;9.60;99.90;;;;;;5075112;28;20134;-19
2023/04/07 08:04:26;;;;;;;16.85;15.00;;;9.40;99.90;;;;;;5074671;28;20075;-19
2023/04/07 08:06:52;;;;;;;18.30;15.18;;;9.50;99.90;;;;;;5075033;28;20047;-19
2023/04/07 08:09:19;;;;;;;17.92;14.43;;;9.90;99.90;;;;;;5074949;28;20044;-19
2023/04/07 08:11:47;;;;;;;17.65;14.40;;;9.80;99.90;;;;;;5075538;28;20048;-19
2023/04/07 08:14:13;;;;;;;15.38;13.15;;;9.70;99.90;;;;;;5075466;28;20056;-19
2023/04/07 08:16:39;;;;;;;17.80;13.43;;;9.60;99.90;;;;;;5075554;28;20040;-19
2023/04/07 08:19:05;;;;;;;17.33;13.77;;;9.60;99.90;;;;;;5073416;28;20525;-19
2023/04/07 08:21:31;;;;;;;15.52;13.40;;;9.50;99.90;;;;;;5075646;28;20059;-19
2023/04/07 08:23:57;;;;;;;16.23;12.77;;;9.50;99.90;;;;;;5073474;28;20394;-19
2023/04/07 08:26:23;;;;;;;15.48;12.50;;;9.50;99.90;;;;;;5074647;28;20044;-19
2023/04/07 08:28:52;;;;;;;16.95;13.02;;;9.50;99.90;;;;;;5074563;28;20483;-19
2023/04/07 08:31:18;;;;;;;17.73;13.60;;;9.60;99.90;;;;;;5073384;28;20044;-19
2023/04/07 08:33:45;;;;;;;17.60;13.95;;;9.70;99.90;;;;;;5074499;28;20045;-19
2023/04/07 08:36:11;;;;;;;17.42;13.90;;;9.80;99.90;;;;;;5075156;28;20045;-19
2023/04/07 08:38:37;;;;;;;13.70;11.90;;;9.80;99.90;;;;;;5074366;28;20048;-19
2023/04/07 08:41:12;;;;;;;15.20;12.73;;;9.90;99.90;;;;;;5075166;28;20055;-19
2023/04/07 08:43:39;;;;;;;13.68;11.52;;;9.90;99.90;;;;;;5074922;28;20178;-19
2023/04/07 08:46:08;;;;;;;16.45;13.70;;;9.90;99.90;;;;;;5074209;28;20056;-19
2023/04/07 08:48:36;;;;;;;17.33;13.02;;;10.00;99.90;;;;;;5074223;28;20052;-19
2023/04/07 08:51:08;;;;;;;13.45;11.93;;;10.00;99.90;;;;;;5074174;28;20052;-19
2023/04/07 08:53:42;;;;;;;12.80;11.18;;;10.10;99.90;;;;;;5074085;28;20054;-19
2023/04/07 08:56:10;;;;;;;14.95;10.68;;;10.00;99.90;;;;;;5074869;28;20127;-19
2023/04/07 08:58:37;;;;;;;14.70;10.93;;;9.90;99.90;;;;;;5074098;28;20048;-19
2023/04/07 09:01:07;;;;;;;12.00;10.32;;;9.90;99.90;;;;;;5072859;28;20058;-19
2023/04/07 09:03:33;;;;;;;14.43;11.88;;;9.90;99.90;;;;;;5073632;28;20406;-19
2023/04/07 09:06:00;;;;;;;16.88;11.68;;;9.90;99.90;;;;;;5073930;28;20048;-19
2023/04/07 09:08:27;;;;;;;12.13;10.77;;;10.10;99.90;;;;;;5073954;28;20051;-19
2023/04/07 09:10:53;;;;;;;13.30;11.05;;;10.30;99.90;;;;;;5074149;28;20099;-19
2023/04/07 09:13:19;;;;;;;13.00;10.95;;;10.50;99.90;;;;;;5073748;28;20091;-19
2023/04/07 09:15:45;;;;;;;15.18;11.55;;;10.60;99.90;;;;;;5055830;28;20076;-19
2023/04/07 09:18:11;;;;;;;15.38;12.07;;;10.50;2.40;;;;;;5073827;28;20052;-19
2023/04/07 09:20:56;;;;;;;13.98;12.35;;;10.40;99.90;;;;;;5039247;28;20079;-19
2023/04/07 09:23:36;;;;;;;14.60;12.80;;;10.40;1.00;;;;;;5073776;28;20055;-19
2023/04/07 09:26:27;;;;;;;16.13;12.70;;;10.50;1.00;;;;;;5073993;28;20097;-19
2023/04/07 09:28:55;;;;;;;15.68;12.27;;;10.70;1.00;;;;;;5072955;28;20059;-19
2023/04/07 09:31:45;;;;;;;17.15;12.88;;;10.90;89.00;;;;;;5073637;28;20098;-19
2023/04/07 09:34:32;;;;;;;16.15;12.95;;;11.10;1.00;;;;;;5072694;28;20040;-19
2023/04/07 09:36:58;;;;;;;16.80;13.02;;;;;;;;;;5073577;28;20044;-19
2023/04/07 09:39:24;;;;;;;14.82;12.95;;;11.50;1.00;;;;;;5073537;28;20131;-19
2023/04/07 09:41:50;;;;;;;13.88;12.38;;;11.70;1.00;;;;;;5073554;28;20092;-19
2023/04/07 09:44:20;;;;;;;13.82;12.32;;;11.90;1.00;;;;;;5073539;28;20123;-19
2023/04/07 09:46:50;;;;;;;15.18;12.55;;;;;;;;;;5072872;28;20037;-19
2023/04/07 09:49:15;;;;;;;13.63;11.90;;;12.30;99.90;;;;;;5073147;28;20048;-19
2023/04/07 09:52:04;;;;;;;12.20;10.90;;;12.60;99.90;;;;;;5055806;28;20098;-19
2023/04/07 09:54:40;;;;;;;13.85;11.02;;;13.40;99.90;;;;;;5073724;28;20057;-19
2023/04/07 09:57:09;;;;;;;13.38;11.32;;;14.10;1.00;;;;;;5073318;28;20082;-19
2023/04/07 09:59:37;;;;;;;16.30;11.52;;;14.60;1.00;;;;;;5073389;28;20053;-19
2023/04/07 10:02:04;;;;;;;12.05;10.57;;;14.70;1.00;;;;;;5073352;28;20101;-19
2023/04/07 10:04:30;;;;;;;12.73;10.15;;;14.40;99.90;;;;;;5073628;28;20125;-19
2023/04/07 10:06:57;;;;;;;10.68;9.55;;;14.10;99.90;;;;;;5074850;28;20037;-19
2023/04/07 10:09:25;;;;;;;11.57;10.38;;;13.60;99.90;;;;;;5077306;28;20044;-19
2023/04/07 10:11:52;;;;;;;11.13;9.93;;;13.30;99.90;;;;;;5077195;28;20425;-19
2023/04/07 10:14:20;;;;;;;12.05;9.82;;;13.10;99.90;;;;;;5075841;28;20053;-19
2023/04/07 10:16:47;;;;;;;11.10;9.25;;;13.40;1.10;;;;;;5076802;28;20490;-19
2023/04/07 10:19:13;;;;;;;12.05;9.15;;;13.80;1.00;;;;;;5076657;28;20525;-19
2023/04/07 10:21:44;;;;;;;10.02;8.95;;;14.20;1.00;;;;;;5060252;28;20143;-19
2023/04/07 10:24:32;;;;;;;11.25;10.15;;;14.40;99.90;;;;;;5077535;28;20080;-19
2023/04/07 10:27:07;;;;;;;11.73;9.70;;;14.60;99.90;;;;;;5075805;28;20041;-19
2023/04/07 10:29:40;;;;;;;9.93;8.93;;;14.40;1.00;;;;;;5076883;28;20055;-19
2023/04/07 10:32:06;;;;;;;10.45;9.35;;;13.90;99.90;;;;;;5077378;28;20044;-19
2023/04/07 10:34:56;;;;;;;11.48;9.57;;;13.60;99.90;;;;;;5076772;28;20052;-19
2023/04/07 10:37:24;;;;;;;11.38;9.60;;;13.00;99.90;;;;;;5075882;28;20453;-19
2023/04/07 10:40:18;;;;;;;11.40;9.75;;;12.80;99.90;;;;;;5076690;28;20127;-19
2023/04/07 10:42:46;;;;;;;11.55;8.98;;;12.60;1.00;;;;;;5076123;28;20052;-19
2023/04/07 10:45:13;;;;;;;9.30;8.05;;;12.80;99.90;;;;;;5077113;28;20044;-19
2023/04/07 10:47:57;;;;;;;8.75;7.53;;;12.60;99.90;;;;;;5076505;28;20076;-19
2023/04/07 10:50:23;;;;;;;6.88;6.18;;;12.40;99.90;;;;;;5077012;28;20434;-19
2023/04/07 10:53:13;;;;;;;7.38;6.57;;;12.30;99.90;;;;;;5076370;28;20048;-19
2023/04/07 10:55:40;;;;;;;10.25;8.90;;;12.40;99.90;;;;;;5076804;28;20051;-19
2023/04/07 10:58:23;;;;;;;7.68;6.70;;;12.50;1.00;;;;;;5077094;28;20045;-19
2023/04/07 11:01:08;;;;;;;9.10;7.03;;;12.60;39.00;;;;;;5076505;28;20110;-19
2023/04/07 11:03:41;;;;;;;9.35;6.85;;;12.30;1.00;;;;;;5076777;28;20048;-19
2023/04/07 11:06:10;;;;;;;9.93;7.45;;;12.40;99.90;;;;;;5077072;28;20040;-19
2023/04/07 11:08:43;;;;;;;7.78;6.63;;;12.60;99.90;;;;;;5076123;28;20088;-19
2023/04/07 11:11:13;;;;;;;9.70;7.60;;;12.90;99.90;;;;;;5076228;28;20045;-19
2023/04/07 11:13:46;;;;;;;8.27;7.13;;;13.00;99.90;;;;;;5076102;28;20048;-20
2023/04/07 11:16:13;;;;;;;9.80;7.55;;;13.20;99.90;;;;;;5074679;28;20041;-20
2023/04/07 11:18:40;;;;;;;8.35;7.43;;;13.20;99.90;;;;;;5074722;28;20044;-19
2023/04/07 11:21:07;;;;;;;10.80;8.57;;;13.30;1.00;;;;;;5076863;28;20126;-19
2023/04/07 11:23:43;;;;;;;10.63;8.82;;;13.30;1.00;;;;;;5075804;28;20048;-19
2023/04/07 11:26:12;;;;;;;10.35;9.05;;;13.20;1.00;;;;;;5076032;28;20036;-19
2023/04/07 11:28:53;;;;;;;10.50;9.25;;;13.20;99.90;;;;;;5075734;28;20040;-19
2023/04/07 11:31:32;;;;;;;10.75;9.07;;;13.20;99.90;;;;;;5076275;28;20040;-19
2023/04/07 11:34:00;;;;;;;13.60;10.85;;;13.30;96.80;;;;;;5075304;28;20491;-20
2023/04/07 11:36:33;;;;;;;11.20;9.48;;;13.30;99.90;;;;;;5076045;28;20076;-20
2023/04/07 11:39:01;;;;;;;11.85;9.05;;;13.10;99.90;;;;;;5076144;28;20040;-19
2023/04/07 11:41:29;;;;;;;9.45;8.50;;;13.00;99.90;;;;;;5074783;28;20080;-19
2023/04/07 11:44:11;;;;;;;11.40;9.90;;;12.90;99.90;;;;;;5075449;28;20084;-19
2023/04/07 11:46:55;;;;;;;10.25;8.98;;;12.80;23.90;;;;;;5067349;28;20048;-19
2023/04/07 11:49:22;;;;;;;11.50;9.68;;;12.70;3.50;;;;;;5055299;28;20482;-19
2023/04/07 11:52:05;;;;;;;11.75;8.63;;;12.80;99.90;;;;;;5068778;28;20079;-21
2023/04/07 11:54:45;;;;;;;10.45;8.95;;;13.00;99.90;;;;;;5075019;28;20037;-21
2023/04/07 11:57:11;;;;;;;11.55;9.07;;;13.20;99.90;;;;;;5075746;28;20094;-21
2023/04/07 11:59:40;;;;;;;9.65;8.65;;;13.40;99.90;;;;;;5075168;28;20059;-20
2023/04/07 12:02:06;;;;;;;10.52;8.55;;;13.50;99.90;;;;;;5074082;28;20052;-21
2023/04/07 12:04:35;;;;;;;8.55;7.43;;;13.60;99.90;;;;;;5072820;28;20444;-20
2023/04/07 12:07:09;;;;;;;8.52;7.63;;;13.80;75.70;;;;;;5074277;28;20045;-20
2023/04/07 12:09:36;;;;;;;9.15;7.65;;;14.00;1.00;;;;;;5075016;28;20044;-21
2023/04/07 12:12:05;;;;;;;9.52;7.97;;;14.00;24.80;;;;;;5074980;28;20060;-20
2023/04/07 12:14:31;;;;;;;7.90;7.10;;;13.80;99.90;;;;;;5073928;28;20102;-21
2023/04/07 12:16:57;;;;;;;10.20;8.00;;;13.50;99.90;;;;;;5074706;28;20045;-21
2023/04/07 12:19:27;;;;;;;8.93;8.02;;;13.50;1.00;;;;;;5070790;28;20140;-21
2023/04/07 12:21:53;;;;;;;9.65;8.65;;;13.50;1.00;;;;;;5054726;28;20049;-21
2023/04/07 12:24:20;;;;;;;9.90;7.60;;;13.50;1.00;;;;;;5054594;28;20074;-21
2023/04/07 12:26:46;;;;;;;8.88;7.97;;;13.60;1.00;;;;;;5053445;28;20479;-21
2023/04/07 12:29:13;;;;;;;8.38;7.57;;;14.10;1.00;;;;;;5054348;28;20048;-21
2023/04/07 12:31:38;;;;;;;9.10;7.78;;;14.40;1.00;;;;;;5054589;28;20147;-21
2023/04/07 12:34:05;;;;;;;8.00;7.20;;;14.70;99.90;;;;;;5054507;28;20041;-21
2023/04/07 12:36:32;;;;;;;9.68;7.65;;;15.00;99.90;;;;;;5056929;28;20063;-21
2023/04/07 12:38:57;;;;;;;9.00;7.80;;;15.20;99.90;;;;;;5072759;28;20052;-21
2023/04/07 12:41:24;;;;;;;7.28;6.57;;;15.30;99.90;;;;;;5054654;28;20124;-21
2023/04/07 12:43:50;;;;;;;7.65;6.95;;;15.40;99.90;;;;;;5054906;28;20305;-21